Edmonds, Washington
Current Conditions -  °F | °C
As of 2:53 AM on Monday 20 Oct 2014 (Local Time) from KPAE Reporting Station
Light Rain Light Rain  
Wind Chill: 58°   Ceiling: 9000
Heat Index: 58°   Visibility: 10mi
Dew Point: 55°   Wind: 8mph
Humidity: 90%   Direction: 150°SSE
Pressure: 29.71"   Gusts: NA
Location:  47.81°N, 122.37°W
Report Text: KPAE 200953Z AUTO 15007KT 10SM -RA SCT070 OVC090 14/13 A2971 RMK AO2 SLP059 P0005 T01440128
Loading
Personal Weather Stations






























Interactive Weather Map New forecast layout! Learn more

10-Day Weather Forecast

Advertisements
Track Severe Weather on mobile